Aviation Digital Data Service (ADDS)

Output produced by METARs form (0313 UTC 01 November 2014)
found at http://aviationweather.gov/adds/metars/
 
KLAX 010307Z 0103/0206 18006KT P6SM FEW030 BKN040 OVC060 
     FM010500 18010KT P6SM BKN025 OVC050 
     FM010700 22015KT 4SM -SHRA BR SCT015 OVC025 
     FM010900 26017G23KT 5SM -RA BR SCT015 OVC025 
     FM011400 28012KT P6SM -SHRA SCT025 OVC035 
     FM011800 27015KT P6SM SCT025 OVC040 
     FM012000 26015KT P6SM SCT030 OVC050 
     FM020400 25009KT P6SM SCT025 OVC040